createdAt,value
2023-05-20T00:00:59.102Z,102648.94
2023-05-20T00:03:27.474Z,102646.34
2023-05-20T00:05:55.712Z,102651.88
2023-05-20T00:08:23.825Z,102651.97
2023-05-20T00:10:53.171Z,102647.53
2023-05-20T00:13:21.273Z,102644.06
2023-05-20T00:15:49.368Z,102643.22
2023-05-20T00:18:19.110Z,102648.72
2023-05-20T00:20:47.212Z,102644.25
2023-05-20T00:23:15.349Z,102645.19
2023-05-20T00:25:43.439Z,102636.25
2023-05-20T00:28:11.555Z,102638.09
2023-05-20T00:30:41.285Z,102640.06
2023-05-20T00:33:09.396Z,102636.53
2023-05-20T00:35:38.886Z,102638.38
2023-05-20T00:38:07.073Z,102637.50
2023-05-20T00:40:35.170Z,102639.47
2023-05-20T00:43:03.337Z,102641.31
2023-05-20T00:45:32.435Z,102644.09
2023-05-20T00:48:02.409Z,102634.28
2023-05-20T00:50:30.836Z,102634.28
2023-05-20T00:53:00.513Z,102641.44
2023-05-20T00:55:28.639Z,102641.47
2023-05-20T00:57:56.806Z,102648.66
2023-05-20T01:00:24.875Z,102637.94
2023-05-20T01:02:53.077Z,102637.13
2023-05-20T01:05:21.441Z,102636.22
2023-05-20T01:07:49.629Z,102640.72
2023-05-20T01:10:19.407Z,102641.66
2023-05-20T01:12:50.176Z,102638.19
2023-05-20T01:15:19.270Z,102635.50
2023-05-20T01:17:48.247Z,102635.53
2023-05-20T01:20:16.684Z,102633.78
2023-05-20T01:22:55.190Z,102633.78
2023-05-20T01:25:23.862Z,102639.22
2023-05-20T01:27:53.006Z,102633.81
2023-05-20T01:30:22.081Z,102632.06
2023-05-20T01:32:53.779Z,102623.06
2023-05-20T01:35:23.112Z,102624.88
2023-05-20T01:37:53.511Z,102627.56
2023-05-20T01:40:22.230Z,102629.34
2023-05-20T01:42:53.334Z,102623.03
2023-05-20T01:45:21.990Z,102622.16
2023-05-20T01:47:50.133Z,102625.75
2023-05-20T01:50:18.328Z,102624.03
2023-05-20T01:52:46.585Z,102615.13
2023-05-20T01:55:16.092Z,102622.41
2023-05-20T01:57:44.624Z,102610.75
2023-05-20T02:00:13.401Z,102613.47
2023-05-20T02:02:41.619Z,102607.25
2023-05-20T02:05:10.868Z,102603.72
2023-05-20T02:07:38.990Z,102606.50
2023-05-20T02:10:08.285Z,102603.91
2023-05-20T02:12:37.961Z,102599.56
2023-05-20T02:15:07.269Z,102594.28
2023-05-20T02:17:35.454Z,102589.88
2023-05-20T02:20:06.637Z,102598.03
2023-05-20T02:22:34.780Z,102597.25
2023-05-20T02:25:02.850Z,102597.31
2023-05-20T02:27:30.944Z,102596.53
2023-05-20T02:30:01.182Z,102595.69
2023-05-20T02:32:29.693Z,102597.56
2023-05-20T02:34:57.995Z,102603.00
2023-05-20T02:37:26.086Z,102603.94
2023-05-20T02:39:54.193Z,102606.66
2023-05-20T02:42:22.342Z,102611.16
2023-05-20T02:44:50.441Z,102603.19
2023-05-20T02:47:19.912Z,102605.03
2023-05-20T02:49:48.040Z,102611.31
2023-05-20T02:52:16.517Z,102608.66
2023-05-20T02:54:44.647Z,102602.44
2023-05-20T02:57:12.758Z,102614.13
2023-05-20T02:59:40.868Z,102607.84
2023-05-20T03:02:09.053Z,102610.56
2023-05-20T03:04:39.127Z,102602.53
2023-05-20T03:07:09.058Z,102599.00
2023-05-20T03:09:37.361Z,102598.22
2023-05-20T03:12:05.734Z,102598.25
2023-05-20T03:14:33.856Z,102592.91
2023-05-20T03:17:01.992Z,102599.22
2023-05-20T03:19:30.151Z,102603.72
2023-05-20T03:22:00.721Z,102601.03
2023-05-20T03:24:28.883Z,102605.47
2023-05-20T03:26:57.123Z,102603.59
2023-05-20T03:29:25.220Z,102600.72
2023-05-20T03:31:53.610Z,102606.84
2023-05-20T03:34:21.884Z,102606.72
2023-05-20T03:36:52.405Z,102604.78
2023-05-20T03:39:21.917Z,102603.63
2023-05-20T03:41:50.038Z,102600.69
2023-05-20T03:44:19.596Z,102611.13
2023-05-20T03:46:47.789Z,102616.25
2023-05-20T03:49:16.038Z,102616.00
2023-05-20T03:51:44.180Z,102618.47
2023-05-20T03:54:12.516Z,102618.28
2023-05-20T03:56:42.039Z,102617.97
2023-05-20T03:59:10.366Z,102615.97
2023-05-20T04:01:39.150Z,102609.41
2023-05-20T04:04:07.466Z,102607.41
2023-05-20T04:06:36.015Z,102600.88
2023-05-20T04:09:04.853Z,102597.94
2023-05-20T04:11:33.035Z,102597.75
2023-05-20T04:14:02.488Z,102601.19
2023-05-20T04:16:30.665Z,102599.28
2023-05-20T04:19:01.024Z,102600.06
2023-05-20T04:21:29.239Z,102598.09
2023-05-20T04:23:57.327Z,102600.59
2023-05-20T04:26:25.627Z,102594.09
2023-05-20T04:28:53.718Z,102590.38
2023-05-20T04:31:26.991Z,102591.13
2023-05-20T04:33:55.219Z,102595.47
2023-05-20T04:36:28.570Z,102596.13
2023-05-20T04:38:57.219Z,102591.38
2023-05-20T04:41:25.400Z,102594.59
2023-05-20T04:43:53.910Z,102583.34
2023-05-20T04:46:23.427Z,102589.00
2023-05-20T04:48:51.569Z,102588.00
2023-05-20T04:51:19.700Z,102580.59
2023-05-20T04:53:48.060Z,102583.09
2023-05-20T04:56:16.202Z,102572.25
2023-05-20T04:58:44.264Z,102569.91
2023-05-20T05:01:12.413Z,102574.50
2023-05-20T05:03:41.914Z,102581.97
2023-05-20T05:06:10.049Z,102571.22
2023-05-20T05:08:38.182Z,102582.66
2023-05-20T05:11:07.054Z,102584.50
2023-05-20T05:13:35.195Z,102583.72
2023-05-20T05:16:03.926Z,102589.88
2023-05-20T05:18:32.110Z,102582.94
2023-05-20T05:21:02.729Z,102587.03
2023-05-20T05:23:31.061Z,102585.53
2023-05-20T05:25:59.173Z,102583.78
2023-05-20T05:28:27.421Z,102583.78
2023-05-20T05:30:56.435Z,102582.69
2023-05-20T05:33:24.719Z,102585.31
2023-05-20T05:35:52.907Z,102591.50
2023-05-20T05:38:22.475Z,102594.69
2023-05-20T05:40:50.617Z,102596.66
2023-05-20T05:43:18.799Z,102592.66
2023-05-20T05:45:46.936Z,102577.75
2023-05-20T05:48:15.125Z,102583.81
2023-05-20T05:50:45.603Z,102576.34
2023-05-20T05:53:13.789Z,102576.06
2023-05-20T05:55:43.292Z,102581.66
2023-05-20T05:58:11.443Z,102574.34
2023-05-20T06:00:39.713Z,102580.72
2023-05-20T06:03:08.311Z,102580.81
2023-05-20T06:05:36.690Z,102583.47
2023-05-20T06:08:05.247Z,102589.84
2023-05-20T06:10:33.380Z,102584.72
2023-05-20T06:13:02.860Z,102582.34
2023-05-20T06:15:30.949Z,102576.03
2023-05-20T06:17:59.160Z,102580.00
2023-05-20T06:20:27.421Z,102584.59
2023-05-20T06:22:55.613Z,102579.16
2023-05-20T06:25:23.936Z,102576.81
2023-05-20T06:27:52.408Z,102578.38
2023-05-20T06:30:22.120Z,102579.72
2023-05-20T06:32:50.383Z,102580.47
2023-05-20T06:35:18.743Z,102583.16
2023-05-20T06:37:46.962Z,102575.69
2023-05-20T06:40:15.303Z,102573.03
2023-05-20T06:42:44.280Z,102573.03
2023-05-20T06:45:13.926Z,102572.25
2023-05-20T06:47:43.514Z,102575.47
2023-05-20T06:50:12.753Z,102574.66
2023-05-20T06:52:40.926Z,102566.22
2023-05-20T06:55:09.737Z,102565.66
2023-05-20T06:57:37.930Z,102561.94
2023-05-20T07:00:07.725Z,102564.13
2023-05-20T07:02:36.170Z,102565.59
2023-05-20T07:05:06.255Z,102567.84
2023-05-20T07:07:34.394Z,102567.34
2023-05-20T07:10:02.695Z,102556.56
2023-05-20T07:12:30.876Z,102565.13
2023-05-20T07:14:59.071Z,102559.84
2023-05-20T07:17:27.884Z,102550.13
2023-05-20T07:19:56.400Z,102550.34
2023-05-20T07:22:25.969Z,102557.03
2023-05-20T07:24:54.170Z,102554.41
2023-05-20T07:27:22.374Z,102545.66
2023-05-20T07:29:50.741Z,102551.13
2023-05-20T07:32:18.964Z,102551.25
2023-05-20T07:34:47.186Z,102549.03
2023-05-20T07:37:16.180Z,102547.50
2023-05-20T07:39:45.753Z,102555.28
2023-05-20T07:42:13.956Z,102547.94
2023-05-20T07:44:42.088Z,102542.56
2023-05-20T07:47:10.400Z,102547.81
2023-05-20T07:49:38.901Z,102546.41
2023-05-20T07:52:07.529Z,102546.28
2023-05-20T07:54:36.677Z,102544.06
2023-05-20T07:57:06.561Z,102546.06
2023-05-20T07:59:34.707Z,102549.84
2023-05-20T08:02:03.306Z,102544.44
2023-05-20T08:04:31.726Z,102548.44
2023-05-20T08:06:59.864Z,102548.31
2023-05-20T08:09:27.978Z,102551.31
2023-05-20T08:11:56.213Z,102550.63
2023-05-20T08:14:25.750Z,102542.25
2023-05-20T08:16:55.037Z,102541.81
2023-05-20T08:19:23.576Z,102544.84
2023-05-20T08:21:51.801Z,102546.31
2023-05-20T08:24:19.903Z,102540.59
2023-05-20T08:26:48.024Z,102548.13
2023-05-20T08:29:16.438Z,102544.81
2023-05-20T08:31:46.146Z,102533.94
2023-05-20T08:34:14.360Z,102537.06
2023-05-20T08:36:42.537Z,102533.44
2023-05-20T08:39:10.669Z,102532.69
2023-05-20T08:41:40.156Z,102539.78
2023-05-20T08:44:10.645Z,102545.78
2023-05-20T08:46:39.430Z,102531.91
2023-05-20T08:49:09.007Z,102532.78
2023-05-20T08:51:38.475Z,102534.03
2023-05-20T08:54:07.906Z,102527.97
2023-05-20T08:56:36.810Z,102522.03
2023-05-20T08:59:05.426Z,102535.22
2023-05-20T09:01:34.056Z,102533.25
2023-05-20T09:04:02.789Z,102522.47
2023-05-20T09:06:43.727Z,102510.25
2023-05-20T09:09:12.432Z,102504.69
2023-05-20T09:11:40.845Z,102504.19
2023-05-20T09:14:09.183Z,102496.03
2023-05-20T09:16:37.470Z,102505.25
2023-05-20T09:19:07.519Z,102514.19
2023-05-20T09:21:37.598Z,102507.03
2023-05-20T09:24:05.947Z,102512.41
2023-05-20T09:26:34.648Z,102503.44
2023-05-20T09:29:02.775Z,102503.50
2023-05-20T09:31:33.941Z,102493.91
2023-05-20T09:34:02.836Z,102499.69
2023-05-20T09:36:31.873Z,102492.97
2023-05-20T09:39:05.312Z,102502.00
2023-05-20T09:41:36.600Z,102497.91
2023-05-20T09:44:06.725Z,102485.34
2023-05-20T09:46:35.281Z,102495.72
2023-05-20T09:49:03.974Z,102489.84
2023-05-20T09:51:32.440Z,102484.13
2023-05-20T09:54:04.645Z,102497.88
2023-05-20T09:56:33.190Z,102487.13
2023-05-20T09:59:02.184Z,102493.28
2023-05-20T10:01:30.327Z,102493.38
2023-05-20T10:03:58.548Z,102491.88
2023-05-20T10:06:48.434Z,102480.78
2023-05-20T10:09:32.048Z,102477.63
2023-05-20T10:12:06.315Z,102484.97
2023-05-20T10:14:43.878Z,102480.13
2023-05-20T10:17:18.434Z,102484.28
2023-05-20T10:19:46.648Z,102485.94
2023-05-20T10:22:14.807Z,102479.06
2023-05-20T10:24:45.093Z,102476.47
2023-05-20T10:27:16.175Z,102473.06
2023-05-20T10:29:45.412Z,102472.88
2023-05-20T10:32:24.244Z,102469.13
2023-05-20T10:34:52.498Z,102472.41
2023-05-20T10:37:28.046Z,102463.34
2023-05-20T10:40:08.175Z,102456.66
2023-05-20T10:42:36.474Z,102454.59
2023-05-20T10:45:05.029Z,102460.84
2023-05-20T10:47:33.347Z,102446.59
2023-05-20T10:50:02.113Z,102457.34
2023-05-20T10:52:35.194Z,102451.19
2023-05-20T10:55:04.983Z,102450.78
2023-05-20T10:57:35.375Z,102449.66
2023-05-20T11:00:05.958Z,102447.94
2023-05-20T11:02:34.366Z,102443.66
2023-05-20T11:05:04.488Z,102446.06
2023-05-20T11:07:34.100Z,102441.59
2023-05-20T11:10:02.299Z,102438.50
2023-05-20T11:12:31.195Z,102423.84
2023-05-20T11:15:00.809Z,102439.72
2023-05-20T11:17:28.980Z,102423.88
2023-05-20T11:19:57.089Z,102428.03
2023-05-20T11:22:25.197Z,102426.78
2023-05-20T11:24:53.288Z,102425.78
2023-05-20T11:27:21.510Z,102416.78
2023-05-20T11:29:51.741Z,102415.00
2023-05-20T11:32:22.364Z,102423.25
2023-05-20T11:34:52.857Z,102421.59
2023-05-20T11:37:21.940Z,102423.22
2023-05-20T11:39:50.057Z,102421.81
2023-05-20T11:42:18.159Z,102421.84
2023-05-20T11:44:46.534Z,102404.13
2023-05-20T11:47:14.902Z,102408.50
2023-05-20T11:49:44.924Z,102412.22
2023-05-20T11:52:13.446Z,102399.91
2023-05-20T11:54:41.608Z,102409.38
2023-05-20T11:57:09.733Z,102402.44
2023-05-20T11:59:37.892Z,102399.44
2023-05-20T12:02:06.133Z,102390.69
2023-05-20T12:04:34.257Z,102377.94
2023-05-20T12:07:04.228Z,102372.38
2023-05-20T12:09:32.381Z,102379.09
2023-05-20T12:12:00.459Z,102385.72
2023-05-20T12:14:28.598Z,102373.63
2023-05-20T12:16:56.865Z,102384.59
2023-05-20T12:19:25.102Z,102372.38
2023-05-20T12:21:53.608Z,102381.34
2023-05-20T12:24:23.128Z,102368.66
2023-05-20T12:26:51.233Z,102370.38
2023-05-20T12:29:19.380Z,102371.69
2023-05-20T12:31:47.885Z,102378.50
2023-05-20T12:34:18.780Z,102374.25
2023-05-20T12:36:47.166Z,102376.78
2023-05-20T12:39:17.745Z,102379.25
2023-05-20T12:41:47.223Z,102377.03
2023-05-20T12:44:15.382Z,102377.81
2023-05-20T12:46:43.631Z,102371.38
2023-05-20T12:49:11.816Z,102368.78
2023-05-20T12:51:39.886Z,102371.94
2023-05-20T12:54:08.006Z,102374.81
2023-05-20T12:56:36.113Z,102369.66
2023-05-20T12:59:05.776Z,102366.28
2023-05-20T13:01:34.083Z,102369.44
2023-05-20T13:04:02.354Z,102372.06
2023-05-20T13:06:31.387Z,102372.81
2023-05-20T13:08:59.540Z,102369.09
2023-05-20T13:11:27.740Z,102375.97
2023-05-20T13:13:56.612Z,102368.13
2023-05-20T13:16:26.255Z,102367.66
2023-05-20T13:18:54.457Z,102365.94
2023-05-20T13:21:22.617Z,102360.16
2023-05-20T13:23:50.837Z,102360.72
2023-05-20T13:26:19.107Z,102366.94
2023-05-20T13:28:47.285Z,102365.72
2023-05-20T13:31:15.494Z,102360.59
2023-05-20T13:33:45.095Z,102359.38
2023-05-20T13:36:13.889Z,102346.94
2023-05-20T13:38:42.011Z,102345.75
2023-05-20T13:41:10.376Z,102348.03
2023-05-20T13:43:42.087Z,102334.28
2023-05-20T13:46:10.429Z,102339.06
2023-05-20T13:48:38.623Z,102335.03
2023-05-20T13:51:08.135Z,102326.38
2023-05-20T13:53:36.446Z,102325.41
2023-05-20T13:56:05.414Z,102319.72
2023-05-20T13:58:33.596Z,102326.69
2023-05-20T14:01:01.970Z,102315.22
2023-05-20T14:03:30.381Z,102327.78
2023-05-20T14:05:58.547Z,102317.31
2023-05-20T14:08:28.249Z,102303.84
2023-05-20T14:10:56.363Z,102305.22
2023-05-20T14:13:24.588Z,102304.13
2023-05-20T14:15:54.824Z,102308.38
2023-05-20T14:18:23.051Z,102305.94
2023-05-20T14:20:51.388Z,102315.50
2023-05-20T14:23:19.500Z,102305.91
2023-05-20T14:25:49.047Z,102306.28
2023-05-20T14:28:17.154Z,102299.94
2023-05-20T14:30:45.285Z,102285.97
2023-05-20T14:33:13.476Z,102293.00
2023-05-20T14:35:41.609Z,102290.63
2023-05-20T14:38:09.717Z,102297.63
2023-05-20T14:40:37.951Z,102298.88
2023-05-20T14:43:07.574Z,102293.75
2023-05-20T14:45:35.716Z,102289.00
2023-05-20T14:48:03.966Z,102286.88
2023-05-20T14:50:32.195Z,102282.31
2023-05-20T14:53:00.333Z,102274.75
2023-05-20T14:55:28.534Z,102276.34
2023-05-20T14:57:56.745Z,102271.78
2023-05-20T15:00:26.249Z,102269.28
2023-05-20T15:02:54.510Z,102268.41
2023-05-20T15:05:22.833Z,102260.00
2023-05-20T15:07:51.526Z,102253.91
2023-05-20T15:10:19.667Z,102261.34
2023-05-20T15:12:47.875Z,102255.13
2023-05-20T15:15:16.165Z,102238.06
2023-05-20T15:17:45.672Z,102240.03
2023-05-20T15:20:14.080Z,102246.06
2023-05-20T15:22:43.996Z,102244.06
2023-05-20T15:25:12.124Z,102241.44
2023-05-20T15:27:41.963Z,102232.91
2023-05-20T15:30:11.146Z,102229.19
2023-05-20T15:32:42.728Z,102233.16
2023-05-20T15:35:12.445Z,102227.06
2023-05-20T15:37:40.650Z,102223.38
2023-05-20T15:40:10.316Z,102221.28
2023-05-20T15:42:38.802Z,102237.31
2023-05-20T15:45:08.094Z,102224.00
2023-05-20T15:47:36.762Z,102229.19
2023-05-20T15:50:08.534Z,102219.72
2023-05-20T15:52:38.876Z,102210.22
2023-05-20T15:55:10.241Z,102203.66
2023-05-20T15:57:38.356Z,102202.16
2023-05-20T16:00:10.094Z,102206.50
2023-05-20T16:02:38.378Z,102202.66
2023-05-20T16:05:10.117Z,102203.19
2023-05-20T16:07:39.626Z,102206.22
2023-05-20T16:10:09.076Z,102198.16
2023-05-20T16:12:37.193Z,102201.63
2023-05-20T16:15:05.983Z,102196.53
2023-05-20T16:17:34.180Z,102195.66
2023-05-20T16:20:07.005Z,102194.25
2023-05-20T16:22:45.145Z,102198.16
2023-05-20T16:25:14.167Z,102190.63
2023-05-20T16:27:42.280Z,102184.50
2023-05-20T16:30:12.173Z,102178.06
2023-05-20T16:32:40.978Z,102188.66
2023-05-20T16:35:09.936Z,102179.94
2023-05-20T16:37:39.448Z,102179.66
2023-05-20T16:40:10.727Z,102184.31
2023-05-20T16:42:39.540Z,102178.97
2023-05-20T16:45:08.887Z,102180.63
2023-05-20T16:47:37.890Z,102171.78
2023-05-20T16:50:06.662Z,102161.66
2023-05-20T16:52:35.680Z,102165.97
2023-05-20T16:55:08.147Z,102164.22
2023-05-20T16:57:36.429Z,102164.09
2023-05-20T17:00:09.687Z,102166.94
2023-05-20T17:02:37.934Z,102166.69
2023-05-20T17:05:06.912Z,102168.88
2023-05-20T17:07:35.123Z,102161.88
2023-05-20T17:10:03.283Z,102168.59
2023-05-20T17:12:32.856Z,102153.81
2023-05-20T17:15:01.072Z,102169.38
2023-05-20T17:17:29.147Z,102169.75
2023-05-20T17:19:57.351Z,102177.31
2023-05-20T17:22:25.478Z,102172.22
2023-05-20T17:24:53.577Z,102172.22
2023-05-20T17:27:21.658Z,102180.81
2023-05-20T17:29:51.331Z,102163.94
2023-05-20T17:32:19.437Z,102167.13
2023-05-20T17:34:47.541Z,102167.44
2023-05-20T17:37:15.881Z,102161.22
2023-05-20T17:39:44.022Z,102163.94
2023-05-20T17:42:12.129Z,102164.25
2023-05-20T17:44:40.245Z,102170.66
2023-05-20T17:47:09.703Z,102172.00
2023-05-20T17:49:37.795Z,102160.09
2023-05-20T17:52:06.521Z,102160.78
2023-05-20T17:54:34.676Z,102164.28
2023-05-20T17:57:02.770Z,102167.56
2023-05-20T17:59:33.735Z,102164.19
2023-05-20T18:02:01.963Z,102166.03
2023-05-20T18:04:31.546Z,102167.22
2023-05-20T18:06:59.710Z,102167.00
2023-05-20T18:09:27.846Z,102172.22
2023-05-20T18:11:55.919Z,102172.53
2023-05-20T18:14:24.130Z,102171.16
2023-05-20T18:16:52.251Z,102169.88
2023-05-20T18:19:20.485Z,102173.13
2023-05-20T18:21:50.016Z,102171.03
2023-05-20T18:24:19.153Z,102173.16
2023-05-20T18:26:48.074Z,102170.75
2023-05-20T18:29:16.236Z,102177.28
2023-05-20T18:31:44.352Z,102172.94
2023-05-20T18:34:12.490Z,102170.75
2023-05-20T18:36:40.567Z,102167.44
2023-05-20T18:39:10.101Z,102171.38
2023-05-20T18:41:46.792Z,102173.56
2023-05-20T18:44:15.716Z,102172.00
2023-05-20T18:46:44.119Z,102170.56
2023-05-20T18:49:12.399Z,102172.81
2023-05-20T18:51:40.854Z,102170.38
2023-05-20T18:54:10.388Z,102167.84
2023-05-20T18:56:38.500Z,102169.88
2023-05-20T18:59:06.722Z,102166.44
2023-05-20T19:01:36.589Z,102173.00
2023-05-20T19:04:05.000Z,102162.47
2023-05-20T19:06:35.170Z,102170.00
2023-05-20T19:09:03.707Z,102168.53
2023-05-20T19:11:33.235Z,102166.13
2023-05-20T19:14:01.341Z,102163.69
2023-05-20T19:16:29.468Z,102158.50
2023-05-20T19:18:57.716Z,102161.56
2023-05-20T19:21:25.942Z,102162.84
2023-05-20T19:23:54.051Z,102162.31
2023-05-20T19:26:22.162Z,102155.38
2023-05-20T19:28:51.771Z,102159.31
2023-05-20T19:31:21.788Z,102151.66
2023-05-20T19:33:51.135Z,102166.50
2023-05-20T19:36:19.466Z,102167.59
2023-05-20T19:38:47.885Z,102161.41
2023-05-20T19:41:16.184Z,102167.94
2023-05-20T19:43:44.282Z,102163.78
2023-05-20T19:46:13.818Z,102162.16
2023-05-20T19:48:41.975Z,102169.72
2023-05-20T19:51:10.517Z,102163.69
2023-05-20T19:53:39.034Z,102156.69
2023-05-20T19:56:07.871Z,102159.59
2023-05-20T19:58:36.018Z,102158.91
2023-05-20T20:01:04.566Z,102159.06
2023-05-20T20:03:34.331Z,102156.59
2023-05-20T20:06:02.678Z,102157.69
2023-05-20T20:08:31.508Z,102157.06
2023-05-20T20:10:59.667Z,102158.09
2023-05-20T20:13:27.770Z,102159.97
2023-05-20T20:15:55.896Z,102159.25
2023-05-20T20:18:23.986Z,102165.78
2023-05-20T20:20:54.116Z,102162.41
2023-05-20T20:23:22.255Z,102152.69
2023-05-20T20:25:50.623Z,102154.59
2023-05-20T20:28:18.724Z,102161.06
2023-05-20T20:30:46.798Z,102161.13
2023-05-20T20:33:14.989Z,102168.38
2023-05-20T20:35:43.131Z,102172.06
2023-05-20T20:38:12.588Z,102164.03
2023-05-20T20:40:42.663Z,102169.53
2023-05-20T20:43:20.467Z,102170.56
2023-05-20T20:45:50.663Z,102170.63
2023-05-20T20:48:19.043Z,102168.81
2023-05-20T20:50:48.108Z,102174.22
2023-05-20T20:53:17.979Z,102177.66
2023-05-20T20:55:47.147Z,102184.72
2023-05-20T20:58:15.850Z,102172.91
2023-05-20T21:00:44.501Z,102175.63
2023-05-20T21:03:12.915Z,102170.03
2023-05-20T21:05:41.354Z,102165.44
2023-05-20T21:08:10.182Z,102163.53
2023-05-20T21:10:39.923Z,102167.81
2023-05-20T21:13:08.005Z,102163.28
2023-05-20T21:15:36.371Z,102166.91
2023-05-20T21:18:04.883Z,102166.91
2023-05-20T21:20:33.016Z,102164.97
2023-05-20T21:23:01.125Z,102166.66
2023-05-20T21:25:29.245Z,102163.00
2023-05-20T21:27:58.704Z,102163.06
2023-05-20T21:30:26.901Z,102164.97
2023-05-20T21:32:55.206Z,102156.88
2023-05-20T21:35:23.343Z,102163.06
2023-05-20T21:37:51.906Z,102155.75
2023-05-20T21:40:20.085Z,102162.91
2023-05-20T21:42:48.852Z,102159.25
2023-05-20T21:45:18.559Z,102156.63
2023-05-20T21:47:46.955Z,102151.22
2023-05-20T21:50:15.135Z,102148.59
2023-05-20T21:52:43.215Z,102149.63
2023-05-20T21:55:11.607Z,102143.34
2023-05-20T21:57:39.719Z,102146.13
2023-05-20T22:00:11.388Z,102144.50
2023-05-20T22:02:40.958Z,102141.88
2023-05-20T22:05:11.812Z,102142.75
2023-05-20T22:07:41.977Z,102135.69
2023-05-20T22:10:10.661Z,102135.69
2023-05-20T22:12:39.080Z,102129.47
2023-05-20T22:15:11.288Z,102135.03
2023-05-20T22:17:41.059Z,102130.56
2023-05-20T22:20:11.306Z,102131.50
2023-05-20T22:22:39.890Z,102126.94
2023-05-20T22:25:08.913Z,102124.22
2023-05-20T22:27:37.061Z,102117.09
2023-05-20T22:30:08.051Z,102119.81
2023-05-20T22:32:36.785Z,102113.53
2023-05-20T22:35:07.326Z,102104.47
2023-05-20T22:37:35.509Z,102102.72
2023-05-20T22:40:03.694Z,102107.41
2023-05-20T22:42:31.791Z,102085.84
2023-05-20T22:45:00.028Z,102094.84
2023-05-20T22:47:28.274Z,102090.47
2023-05-20T22:49:57.462Z,102087.84
2023-05-20T22:52:26.920Z,102085.06
2023-05-20T22:54:55.018Z,102086.81
2023-05-20T22:57:23.204Z,102079.50
2023-05-20T22:59:52.004Z,102080.38
2023-05-20T23:02:20.083Z,102083.84
2023-05-20T23:04:48.354Z,102080.13
2023-05-20T23:07:19.008Z,102074.66
2023-05-20T23:09:48.783Z,102079.13
2023-05-20T23:12:17.327Z,102076.53
2023-05-20T23:14:45.694Z,102072.00
2023-05-20T23:17:13.856Z,102072.09
2023-05-20T23:19:41.985Z,102064.13
2023-05-20T23:22:10.070Z,102066.91
2023-05-20T23:24:38.158Z,102066.03
2023-05-20T23:27:07.848Z,102056.28
2023-05-20T23:29:35.963Z,102050.94
2023-05-20T23:32:04.188Z,102045.59
2023-05-20T23:34:32.273Z,102040.25
2023-05-20T23:37:00.375Z,102048.28
2023-05-20T23:39:28.461Z,102039.28
2023-05-20T23:41:56.578Z,102032.22
2023-05-20T23:44:26.068Z,102034.13
2023-05-20T23:46:54.148Z,102037.88
2023-05-20T23:49:24.450Z,102036.19
2023-05-20T23:51:52.877Z,102034.59
2023-05-20T23:54:21.029Z,102030.13
2023-05-20T23:56:49.259Z,102019.31
2023-05-20T23:59:17.476Z,102018.38
